Time;durP1;ratioP1;P1;durP2;ratioP2;P2;SDS_P1;SDS_P2;PMS_P1;PMS_P2;Temp;Humidity;BMP_temperature;BMP_pressure;BME280_temperature;BME280_humidity;BME280_pressure;Samples;Min_cycle;Max_cycle;Signal;HPM_P1;HPM_P2
2021/06/06 04:51:51;;;;;;;;;;;16.50;99.90;;;;;;5303835;23;20021;-69
2021/06/06 04:54:28;;;;;;;;;;;16.50;99.90;;;;;;4953504;29;19926;-69
2021/06/06 04:56:54;;;;;;;;;;;16.50;99.90;;;;;;4953163;29;19922;-69
2021/06/06 04:59:27;;;;;;;;;;;16.50;99.90;;;;;;4952986;29;19977;-68
2021/06/06 05:01:53;;;;;;;;;;;16.50;99.90;;;;;;4952673;28;20441;-69
2021/06/06 05:04:20;;;;;;;;;;;16.50;99.90;;;;;;4974611;23;20414;-72
2021/06/06 05:06:47;;;;;;;;;;;16.60;99.90;;;;;;4952094;29;19922;-72
2021/06/06 05:09:19;;;;;;;;;;;16.70;99.90;;;;;;4953356;29;19923;-72
2021/06/06 05:11:52;;;;;;;;;;;16.70;99.90;;;;;;4954804;29;20029;-72
2021/06/06 05:14:20;;;;;;;;;;;16.80;99.90;;;;;;4955435;28;20413;-72
2021/06/06 05:16:52;;;;;;;;;;;16.90;99.90;;;;;;4952213;29;20322;-72
2021/06/06 05:19:19;;;;;;;;;;;17.00;99.90;;;;;;4952014;29;19926;-71
2021/06/06 05:21:46;;;;;;;;;;;17.00;99.90;;;;;;4952499;29;20401;-71
2021/06/06 05:24:12;;;;;;;;;;;17.00;99.90;;;;;;4951921;28;19977;-71
2021/06/06 05:26:40;;;;;;;;;;;17.00;99.90;;;;;;4952345;29;20349;-71
2021/06/06 05:29:06;;;;;;;;;;;17.10;99.90;;;;;;4951896;28;20356;-70
2021/06/06 05:31:33;;;;;;;;;;;17.20;99.90;;;;;;4953466;28;20449;-71
2021/06/06 05:33:59;;;;;;;;;;;17.30;99.90;;;;;;4953300;28;20028;-71
2021/06/06 05:36:26;;;;;;;;;;;17.40;99.90;;;;;;4952063;29;20577;-72
2021/06/06 05:38:53;;;;;;;;;;;17.50;99.90;;;;;;4953583;29;20198;-71
2021/06/06 05:41:20;;;;;;;;;;;17.50;99.90;;;;;;4953765;29;20374;-71
2021/06/06 05:43:48;;;;;;;;;;;17.50;99.90;;;;;;4955596;28;19922;-71
2021/06/06 05:46:16;;;;;;;;;;;17.40;99.90;;;;;;4956719;29;19927;-71
2021/06/06 05:48:42;;;;;;;;;;;17.30;99.90;;;;;;4952307;29;20398;-71
2021/06/06 05:51:10;;;;;;;;;;;17.40;99.90;;;;;;4953221;29;20025;-71
2021/06/06 05:53:42;;;;;;;;;;;17.20;99.90;;;;;;4953778;28;19981;-71
2021/06/06 05:56:10;;;;;;;;;;;17.20;99.90;;;;;;4953527;29;19926;-71
2021/06/06 05:58:36;;;;;;;;;;;17.20;99.90;;;;;;4953163;29;20016;-71
2021/06/06 06:01:04;;;;;;;;;;;17.20;99.90;;;;;;4951405;29;20033;-71
2021/06/06 06:03:31;;;;;;;;;;;17.20;99.90;;;;;;4951451;28;19980;-71
2021/06/06 06:05:57;;;;;;;;;;;17.20;99.90;;;;;;4953285;29;19961;-71
2021/06/06 06:08:24;;;;;;;;;;;17.20;99.90;;;;;;4953412;29;20353;-70
2021/06/06 06:10:54;;;;;;;;;;;17.20;99.90;;;;;;4954642;29;19923;-71
2021/06/06 06:13:22;;;;;;;;;;;17.20;99.90;;;;;;4953294;29;19969;-71
2021/06/06 06:15:49;;;;;;;;;;;17.10;99.90;;;;;;4953204;29;20467;-72
2021/06/06 06:18:17;;;;;;;;;;;17.20;99.90;;;;;;4952692;29;20322;-71
2021/06/06 06:20:44;;;;;;;;;;;17.30;99.90;;;;;;4952762;29;20350;-71
2021/06/06 06:23:10;;;;;;;;;;;17.20;99.90;;;;;;4952622;28;20017;-71
2021/06/06 06:25:37;;;;;;;;;;;17.20;99.90;;;;;;4952604;28;19965;-71
2021/06/06 06:28:04;;;;;;;;;;;17.30;99.90;;;;;;4951075;29;19932;-71
2021/06/06 06:30:57;;;;;;;;;;;17.30;99.90;;;;;;4936262;28;19922;-71
2021/06/06 06:33:36;;;;;;;;;;;17.30;99.90;;;;;;4950925;28;19926;-72
2021/06/06 06:36:03;;;;;;;;;;;17.30;99.90;;;;;;4952295;29;20038;-71
2021/06/06 06:38:30;;;;;;;;;;;17.40;99.90;;;;;;4952238;28;19927;-71
2021/06/06 06:40:57;;;;;;;;;;;17.30;99.90;;;;;;4951866;28;19922;-72
2021/06/06 06:43:23;;;;;;;;;;;17.20;99.90;;;;;;4952157;28;19926;-72
2021/06/06 06:45:50;;;;;;;;;;;17.20;99.90;;;;;;4950711;29;19922;-71
2021/06/06 06:48:19;;;;;;;;;;;17.10;99.90;;;;;;4950543;29;19934;-72
2021/06/06 06:50:47;;;;;;;;;;;17.10;99.90;;;;;;4952459;29;20293;-72
2021/06/06 06:53:14;;;;;;;;;;;17.10;99.90;;;;;;4951809;29;19930;-72
2021/06/06 06:55:41;;;;;;;;;;;17.20;99.90;;;;;;4952093;28;19922;-71
2021/06/06 06:58:08;;;;;;;;;;;17.30;99.90;;;;;;4950558;29;19969;-71
2021/06/06 07:00:40;;;;;;;;;;;17.20;99.90;;;;;;4950603;29;20382;-71
2021/06/06 07:03:06;;;;;;;;;;;17.20;99.90;;;;;;4951990;29;19992;-71
2021/06/06 07:05:33;;;;;;;;;;;17.20;99.90;;;;;;4951769;29;19949;-71
2021/06/06 07:08:01;;;;;;;;;;;17.20;99.90;;;;;;4952387;29;19953;-71
2021/06/06 07:10:30;;;;;;;;;;;17.20;99.90;;;;;;4950858;29;19976;-71
2021/06/06 07:12:57;;;;;;;;;;;17.20;99.90;;;;;;4952095;29;19933;-71
2021/06/06 07:15:23;;;;;;;;;;;17.20;99.90;;;;;;4951893;29;20453;-72
2021/06/06 07:17:49;;;;;;;;;;;17.20;99.90;;;;;;4952069;29;19945;-71
2021/06/06 07:20:20;;;;;;;;;;;17.20;99.90;;;;;;4952057;29;20206;-72
2021/06/06 07:22:46;;;;;;;;;;;17.20;99.90;;;;;;4952073;28;19934;-73
2021/06/06 07:25:15;;;;;;;;;;;17.20;99.90;;;;;;4951680;29;20386;-72
2021/06/06 07:27:44;;;;;;;;;;;17.40;99.90;;;;;;4950525;29;19930;-72
2021/06/06 07:30:11;;;;;;;;;;;17.40;99.90;;;;;;4951959;29;19926;-71
2021/06/06 07:32:37;;;;;;;;;;;17.40;99.90;;;;;;4952298;29;20053;-72
2021/06/06 07:35:05;;;;;;;;;;;17.40;99.90;;;;;;4950448;29;20021;-72
2021/06/06 07:37:32;;;;;;;;;;;17.50;99.90;;;;;;4943389;28;19926;-72
2021/06/06 07:39:58;;;;;;;;;;;17.40;99.90;;;;;;4932817;29;20359;-72
2021/06/06 07:42:26;;;;;;;;;;;17.50;99.90;;;;;;4932777;29;20017;-72
2021/06/06 07:44:52;;;;;;;;;;;17.40;99.90;;;;;;4932370;29;20363;-72
2021/06/06 07:47:19;;;;;;;;;;;17.50;99.90;;;;;;4932537;29;20417;-74
2021/06/06 07:49:45;;;;;;;;;;;17.60;99.90;;;;;;4932588;29;20351;-73
2021/06/06 07:52:11;;;;;;;;;;;17.70;99.90;;;;;;4934582;29;19929;-73
2021/06/06 07:54:38;;;;;;;;;;;17.60;99.90;;;;;;4936065;29;20394;-73
2021/06/06 07:57:04;;;;;;;;;;;17.60;99.90;;;;;;4936279;29;19957;-73
2021/06/06 07:59:34;;;;;;;;;;;17.70;99.90;;;;;;4935060;29;19923;-73
2021/06/06 08:02:00;;;;;;;;;;;17.80;99.90;;;;;;4935055;29;19930;-73
2021/06/06 08:04:27;;;;;;;;;;;17.80;99.90;;;;;;4936136;29;19990;-73
2021/06/06 08:06:53;;;;;;;;;;;18.10;99.90;;;;;;4936476;29;19933;-73
2021/06/06 08:09:20;;;;;;;;;;;18.30;99.90;;;;;;4936556;29;20375;-73
2021/06/06 08:11:46;;;;;;;;;;;18.70;99.90;;;;;;4937290;29;19949;-73
2021/06/06 08:14:14;;;;;;;;;;;18.80;99.90;;;;;;4936905;29;20299;-74
2021/06/06 08:16:42;;;;;;;;;;;19.00;99.90;;;;;;4938285;29;20017;-74
2021/06/06 08:19:08;;;;;;;;;;;19.20;99.90;;;;;;4937340;29;19981;-73
2021/06/06 08:21:40;;;;;;;;;;;19.20;99.90;;;;;;4938222;29;19922;-74
2021/06/06 08:24:08;;;;;;;;;;;19.10;99.90;;;;;;4937561;29;19923;-74
2021/06/06 08:26:35;;;;;;;;;;;18.90;99.90;;;;;;4937786;29;19974;-74
2021/06/06 08:29:02;;;;;;;;;;;18.80;99.90;;;;;;4936995;29;20099;-73
2021/06/06 08:31:30;;;;;;;;;;;18.70;99.90;;;;;;4937084;29;20309;-74
2021/06/06 08:33:57;;;;;;;;;;;18.70;99.90;;;;;;4937292;29;20042;-73
2021/06/06 08:36:25;;;;;;;;;;;18.50;99.90;;;;;;4938086;29;20013;-73
2021/06/06 08:38:52;;;;;;;;;;;18.50;99.90;;;;;;4956668;29;19927;-73
2021/06/06 08:41:20;;;;;;;;;;;18.50;99.90;;;;;;4956251;29;20301;-74
2021/06/06 08:43:48;;;;;;;;;;;18.60;99.90;;;;;;4956521;29;20154;-73
2021/06/06 08:46:15;;;;;;;;;;;18.50;99.90;;;;;;4959114;29;19926;-72
2021/06/06 08:48:45;;;;;;;;;;;18.70;99.90;;;;;;4970157;28;20007;-72
2021/06/06 08:51:18;;;;;;;;;;;18.90;99.90;;;;;;4968647;29;20017;-72
2021/06/06 08:53:49;;;;;;;;;;;18.90;99.90;;;;;;4970766;29;19922;-74
2021/06/06 08:56:18;;;;;;;;;;;19.00;99.90;;;;;;4961912;29;19998;-73
2021/06/06 08:58:47;;;;;;;;;;;19.10;99.90;;;;;;4958540;29;19957;-73
2021/06/06 09:01:17;;;;;;;;;;;19.20;99.90;;;;;;4962663;29;19960;-73
2021/06/06 09:03:43;;;;;;;;;;;19.30;99.90;;;;;;4964589;28;19977;-73
2021/06/06 09:06:14;;;;;;;;;;;19.30;99.90;;;;;;4964921;29;20410;-73
2021/06/06 09:08:42;;;;;;;;;;;19.10;99.90;;;;;;4967086;29;20402;-73
2021/06/06 09:11:10;;;;;;;;;;;19.00;99.90;;;;;;4962472;29;19962;-72
2021/06/06 09:13:37;;;;;;;;;;;19.10;99.90;;;;;;4957690;29;19958;-72
2021/06/06 09:16:12;;;;;;;;;;;19.00;99.90;;;;;;4956246;29;20422;-72
2021/06/06 09:18:44;;;;;;;;;;;18.90;99.90;;;;;;4954954;29;20301;-73
2021/06/06 09:21:12;;;;;;;;;;;19.10;99.90;;;;;;4954787;29;19934;-73
2021/06/06 09:23:38;;;;;;;;;;;19.20;99.90;;;;;;4953105;29;19923;-72
2021/06/06 09:26:08;;;;;;;;;;;19.50;99.90;;;;;;4954905;29;19946;-73
2021/06/06 09:28:38;;;;;;;;;;;19.80;99.90;;;;;;4953079;29;20013;-73
2021/06/06 09:31:07;;;;;;;;;;;20.10;99.90;;;;;;4953973;29;20017;-72
2021/06/06 09:33:36;;;;;;;;;;;20.20;99.90;;;;;;4958309;29;19968;-71
2021/06/06 09:36:04;;;;;;;;;;;20.70;99.90;;;;;;4956975;29;20409;-72
2021/06/06 09:38:36;;;;;;;;;;;21.40;99.90;;;;;;4940778;29;19930;-72
2021/06/06 09:41:13;;;;;;;;;;;22.40;99.90;;;;;;4936000;29;20382;-71
2021/06/06 09:43:40;;;;;;;;;;;22.40;99.90;;;;;;4933841;29;20350;-72
2021/06/06 09:46:08;;;;;;;;;;;22.30;99.90;;;;;;4935044;29;19926;-72
2021/06/06 09:48:40;;;;;;;;;;;22.20;99.90;;;;;;4935926;29;20093;-71
2021/06/06 09:51:10;;;;;;;;;;;21.90;99.90;;;;;;4935402;29;19927;-71
2021/06/06 09:53:37;;;;;;;;;;;21.30;99.90;;;;;;4935019;29;20025;-71
2021/06/06 09:56:07;;;;;;;;;;;21.10;99.90;;;;;;4934541;29;20414;-71
2021/06/06 09:58:38;;;;;;;;;;;20.90;99.90;;;;;;4933415;29;20446;-71
2021/06/06 10:01:09;;;;;;;;;;;20.50;99.90;;;;;;4934607;29;19953;-71
2021/06/06 10:03:39;;;;;;;;;;;20.20;99.90;;;;;;4932559;29;20346;-71
2021/06/06 10:06:15;;;;;;;;;;;20.10;99.90;;;;;;4935186;29;19989;-75
2021/06/06 10:08:42;;;;;;;;;;;19.90;99.90;;;;;;4935370;29;19950;-73
2021/06/06 10:11:11;;;;;;;;;;;19.90;99.90;;;;;;4934793;29;19926;-72
2021/06/06 10:13:40;;;;;;;;;;;19.80;99.90;;;;;;4935016;29;19929;-73
2021/06/06 10:16:10;;;;;;;;;;;19.70;99.90;;;;;;4933647;29;20350;-72
2021/06/06 10:18:39;;;;;;;;;;;19.80;99.90;;;;;;4935711;29;20134;-72
2021/06/06 10:21:07;;;;;;;;;;;19.80;99.90;;;;;;4934640;29;20311;-73
2021/06/06 10:23:37;;;;;;;;;;;19.70;99.90;;;;;;4935079;29;19927;-74
2021/06/06 10:26:07;;;;;;;;;;;19.90;99.90;;;;;;4933378;29;19926;-72
2021/06/06 10:28:36;;;;;;;;;;;20.00;99.90;;;;;;4936565;29;19923;-72
2021/06/06 10:31:06;;;;;;;;;;;20.20;99.90;;;;;;4932509;29;20050;-72
2021/06/06 10:33:35;;;;;;;;;;;20.40;99.90;;;;;;4933386;29;19926;-72
2021/06/06 10:36:02;;;;;;;;;;;20.60;99.90;;;;;;4933194;29;19931;-72
2021/06/06 10:38:29;;;;;;;;;;;20.70;99.90;;;;;;4947601;29;19927;-72
2021/06/06 10:40:58;;;;;;;;;;;20.80;99.90;;;;;;4950537;29;20378;-72
2021/06/06 10:43:30;;;;;;;;;;;20.90;99.90;;;;;;4952218;29;19930;-73
2021/06/06 10:46:00;;;;;;;;;;;21.10;99.90;;;;;;4951176;29;19962;-72
2021/06/06 10:48:30;;;;;;;;;;;21.10;99.90;;;;;;4950377;29;19922;-73
2021/06/06 10:51:07;;;;;;;;;;;21.20;99.90;;;;;;4952174;29;19978;-74
2021/06/06 10:53:35;;;;;;;;;;;21.40;99.90;;;;;;4952015;29;19922;-72
2021/06/06 10:56:08;;;;;;;;;;;21.50;99.90;;;;;;4951897;28;20565;-70
2021/06/06 10:58:38;;;;;;;;;;;21.40;99.90;;;;;;4950821;29;19968;-73
2021/06/06 11:01:06;;;;;;;;;;;21.50;99.90;;;;;;4952303;28;20428;-72
2021/06/06 11:03:36;;;;;;;;;;;21.60;99.90;;;;;;4950540;29;19922;-72
2021/06/06 11:06:04;;;;;;;;;;;21.70;99.90;;;;;;4995639;23;19921;-69
2021/06/06 11:08:51;;;;;;;;;;;21.30;99.90;;;;;;4989085;28;20012;-70
2021/06/06 11:11:23;;;;;;;;;;;21.60;99.90;;;;;;4983912;28;20433;-69
2021/06/06 11:13:51;;;;;;;;;;;21.70;99.90;;;;;;4990499;28;20306;-70
2021/06/06 11:16:22;;;;;;;;;;;21.80;99.90;;;;;;4970231;28;19953;-69
2021/06/06 11:18:51;;;;;;;;;;;21.80;99.90;;;;;;4971243;28;20028;-68
2021/06/06 11:21:29;;;;;;;;;;;22.00;99.90;;;;;;4970857;28;19922;-68
2021/06/06 11:23:57;;;;;;;;;;;22.10;99.90;;;;;;4970929;28;19921;-68
2021/06/06 11:26:24;;;;;;;;;;;21.80;99.90;;;;;;4970900;28;20366;-68
2021/06/06 11:29:04;;;;;;;;;;;21.80;99.90;;;;;;4970964;28;20346;-69
2021/06/06 11:31:31;;;;;;;;;;;21.80;99.90;;;;;;4970722;28;20437;-70
2021/06/06 11:34:01;;;;;;;;;;;21.70;99.90;;;;;;4970757;28;19930;-69
2021/06/06 11:36:29;;;;;;;;;;;21.40;99.90;;;;;;4970534;28;20004;-69
2021/06/06 11:38:56;;;;;;;;;;;21.20;99.90;;;;;;4970651;28;19922;-69
2021/06/06 11:41:31;;;;;;;;;;;21.10;99.90;;;;;;4969364;28;19981;-69
2021/06/06 11:44:00;;;;;;;;;;;21.00;99.90;;;;;;4970720;28;20021;-69
2021/06/06 11:46:30;;;;;;;;;;;20.80;99.90;;;;;;4969426;28;19922;-69
2021/06/06 11:49:02;;;;;;;;;;;20.80;99.90;;;;;;4970772;28;20389;-68
2021/06/06 11:51:37;;;;;;;;;;;20.60;99.90;;;;;;4970601;28;19992;-68
2021/06/06 11:54:06;;;;;;;;;;;20.20;99.90;;;;;;4971122;28;19922;-69
2021/06/06 11:56:34;;;;;;;;;;;20.10;99.90;;;;;;4971089;28;19922;-68
2021/06/06 11:59:09;;;;;;;;;;;20.00;99.90;;;;;;4970542;28;19922;-68
2021/06/06 12:01:46;;;;;;;;;;;19.90;99.90;;;;;;4970407;28;19922;-69
2021/06/06 12:04:13;;;;;;;;;;;19.90;99.90;;;;;;4970408;28;19998;-69
2021/06/06 12:06:44;;;;;;;;;;;20.00;99.90;;;;;;4970838;28;20378;-69
2021/06/06 12:09:15;;;;;;;;;;;20.00;99.90;;;;;;4970446;28;19925;-68
2021/06/06 12:11:41;;;;;;;;;;;20.10;99.90;;;;;;4970556;28;20374;-68
2021/06/06 12:14:08;;;;;;;;;;;20.00;99.90;;;;;;4970458;28;20405;-68
2021/06/06 12:16:35;;;;;;;;;;;20.00;99.90;;;;;;4969143;28;19930;-69
2021/06/06 12:19:03;;;;;;;;;;;20.20;99.90;;;;;;4970473;28;20118;-68
2021/06/06 12:21:36;;;;;;;;;;;20.00;99.90;;;;;;4970385;28;19948;-69
2021/06/06 12:24:10;;;;;;;;;;;20.00;99.90;;;;;;4970631;28;19925;-69
2021/06/06 12:26:37;;;;;;;;;;;20.10;99.90;;;;;;4970367;28;19969;-69
2021/06/06 12:29:04;;;;;;;;;;;20.30;99.90;;;;;;4970289;28;19940;-68
2021/06/06 12:31:32;;;;;;;;;;;20.50;99.90;;;;;;4970599;28;19929;-68
2021/06/06 12:34:10;;;;;;;;;;;20.70;99.90;;;;;;4970030;28;20367;-68
2021/06/06 12:36:37;;;;;;;;;;;20.90;99.90;;;;;;4970204;28;19922;-69
2021/06/06 12:39:06;;;;;;;;;;;21.10;99.90;;;;;;4971351;28;19926;-69
2021/06/06 12:41:37;;;;;;;;;;;21.40;99.90;;;;;;4973833;28;19999;-68
2021/06/06 12:44:03;;;;;;;;;;;21.60;99.90;;;;;;4973568;28;19926;-69
2021/06/06 12:46:30;;;;;;;;;;;21.70;99.90;;;;;;4973734;28;20313;-69
2021/06/06 12:48:58;;;;;;;;;;;22.00;99.90;;;;;;4972541;28;20020;-69
2021/06/06 12:51:26;;;;;;;;;;;21.90;99.90;;;;;;4973721;28;19926;-69
2021/06/06 12:53:53;;;;;;;;;;;21.90;99.90;;;;;;4973580;28;19957;-69
2021/06/06 12:56:25;;;;;;;;;;;21.50;99.90;;;;;;4972184;28;20676;-69
2021/06/06 12:59:02;;;;;;;;;;;21.60;99.90;;;;;;4973570;28;20289;-69
2021/06/06 13:01:30;;;;;;;;;;;21.20;99.90;;;;;;4973836;28;19926;-69
2021/06/06 13:03:56;;;;;;;;;;;21.10;99.90;;;;;;4973204;28;20350;-68
2021/06/06 13:06:34;;;;;;;;;;;21.10;99.90;;;;;;4973128;28;20094;-68
2021/06/06 13:09:18;;;;;;;;;;;20.90;99.90;;;;;;4973579;28;19921;-69
2021/06/06 13:11:45;;;;;;;;;;;20.90;99.90;;;;;;4973413;28;19932;-68
2021/06/06 13:14:37;;;;;;;;;;;20.80;99.90;;;;;;4971924;28;19933;-68
2021/06/06 13:17:08;;;;;;;;;;;20.60;99.90;;;;;;4971696;28;20154;-69
2021/06/06 13:19:35;;;;;;;;;;;20.40;99.90;;;;;;4973670;28;20385;-68
2021/06/06 13:22:07;;;;;;;;;;;20.30;99.90;;;;;;4973725;28;19921;-68
2021/06/06 13:24:35;;;;;;;;;;;20.30;99.90;;;;;;4973760;28;20009;-68
2021/06/06 13:27:05;;;;;;;;;;;20.10;99.90;;;;;;4973077;28;20403;-69
2021/06/06 13:29:33;;;;;;;;;;;19.90;99.90;;;;;;4972827;28;19926;-68
2021/06/06 13:32:01;;;;;;;;;;;19.90;99.90;;;;;;4972798;28;20389;-68
2021/06/06 13:34:29;;;;;;;;;;;19.90;99.90;;;;;;4972508;28;20375;-68
2021/06/06 13:36:56;;;;;;;;;;;19.90;99.90;;;;;;4972589;28;19926;-68
2021/06/06 13:39:24;;;;;;;;;;;19.90;99.90;;;;;;4972593;28;19922;-69
2021/06/06 13:41:51;;;;;;;;;;;19.90;99.90;;;;;;4972849;28;19968;-68
2021/06/06 13:44:18;;;;;;;;;;;19.90;99.90;;;;;;4972535;28;19922;-69
2021/06/06 13:46:44;;;;;;;;;;;20.00;99.90;;;;;;4972761;28;19986;-68
2021/06/06 13:49:11;;;;;;;;;;;20.00;99.90;;;;;;4972214;28;20018;-68
2021/06/06 13:51:38;;;;;;;;;;;20.00;99.90;;;;;;4972122;28;19928;-68
2021/06/06 13:54:06;;;;;;;;;;;20.10;99.90;;;;;;4972537;28;19935;-68
2021/06/06 13:56:32;;;;;;;;;;;20.10;99.90;;;;;;4972416;28;19922;-68
2021/06/06 13:58:58;;;;;;;;;;;20.20;99.90;;;;;;4972187;28;20017;-69
2021/06/06 14:01:25;;;;;;;;;;;20.20;99.90;;;;;;4972254;28;19953;-69
2021/06/06 14:03:51;;;;;;;;;;;20.20;99.90;;;;;;4972238;28;19933;-68
2021/06/06 14:06:17;;;;;;;;;;;20.20;99.90;;;;;;4971977;28;19922;-69
2021/06/06 14:08:45;;;;;;;;;;;20.30;99.90;;;;;;4971788;28;20005;-69
2021/06/06 14:11:13;;;;;;;;;;;20.40;99.90;;;;;;4972189;28;20337;-68
2021/06/06 14:13:41;;;;;;;;;;;20.40;99.90;;;;;;4972098;28;19926;-68
2021/06/06 14:16:08;;;;;;;;;;;20.50;99.90;;;;;;4970929;28;20419;-68
2021/06/06 14:18:35;;;;;;;;;;;20.50;99.90;;;;;;4972234;28;20369;-68
2021/06/06 14:21:01;;;;;;;;;;;20.30;99.90;;;;;;4971823;28;19992;-69
2021/06/06 14:23:28;;;;;;;;;;;20.30;99.90;;;;;;4971693;28;20028;-69
2021/06/06 14:25:56;;;;;;;;;;;20.20;99.90;;;;;;4971733;28;20313;-68
2021/06/06 14:28:23;;;;;;;;;;;20.10;99.90;;;;;;4971916;28;20448;-68
2021/06/06 14:30:50;;;;;;;;;;;20.00;99.90;;;;;;4971887;28;19930;-68
2021/06/06 14:33:22;;;;;;;;;;;19.90;99.90;;;;;;4970319;28;19922;-68
2021/06/06 14:35:49;;;;;;;;;;;19.70;99.90;;;;;;4971518;28;20374;-69
2021/06/06 14:38:15;;;;;;;;;;;19.60;99.90;;;;;;4971531;28;19926;-69
2021/06/06 14:40:42;;;;;;;;;;;19.50;99.90;;;;;;4970216;28;19921;-69
2021/06/06 14:43:11;;;;;;;;;;;19.50;99.90;;;;;;4971784;28;19944;-69
2021/06/06 14:45:38;;;;;;;;;;;19.40;99.90;;;;;;4970286;28;19922;-69
2021/06/06 14:48:06;;;;;;;;;;;19.30;99.90;;;;;;4971355;28;19966;-69
2021/06/06 14:50:32;;;;;;;;;;;19.30;99.90;;;;;;4971133;28;20426;-69
2021/06/06 14:53:00;;;;;;;;;;;19.30;99.90;;;;;;4971181;28;20452;-69
2021/06/06 14:55:27;;;;;;;;;;;19.30;99.90;;;;;;4971147;28;19978;-69
2021/06/06 14:57:54;;;;;;;;;;;19.40;99.90;;;;;;4971354;28;19929;-69
2021/06/06 15:00:23;;;;;;;;;;;19.30;99.90;;;;;;4970710;28;19934;-69
2021/06/06 15:02:49;;;;;;;;;;;19.30;99.90;;;;;;4971008;28;19930;-69
2021/06/06 15:05:16;;;;;;;;;;;19.40;99.90;;;;;;4970900;28;19922;-69
2021/06/06 15:07:42;;;;;;;;;;;19.30;99.90;;;;;;4971070;28;19973;-69
2021/06/06 15:10:09;;;;;;;;;;;19.20;99.90;;;;;;4971076;28;20394;-68
2021/06/06 15:12:36;;;;;;;;;;;19.30;99.90;;;;;;4971620;28;19929;-67
2021/06/06 15:15:02;;;;;;;;;;;19.30;99.90;;;;;;4970884;28;20012;-68
2021/06/06 15:17:30;;;;;;;;;;;19.30;99.90;;;;;;4970813;28;19922;-67
2021/06/06 15:19:58;;;;;;;;;;;19.20;99.90;;;;;;4970755;28;19996;-68
2021/06/06 15:22:24;;;;;;;;;;;19.20;99.90;;;;;;4970921;28;19933;-67
2021/06/06 15:24:51;;;;;;;;;;;19.20;99.90;;;;;;4970543;28;19928;-69
2021/06/06 15:27:17;;;;;;;;;;;19.30;99.90;;;;;;4970819;28;20305;-68
2021/06/06 15:29:43;;;;;;;;;;;19.30;99.90;;;;;;4969084;28;20368;-69
2021/06/06 15:32:10;;;;;;;;;;;19.20;99.90;;;;;;4970478;28;19969;-69
2021/06/06 15:34:38;;;;;;;;;;;19.20;99.90;;;;;;4970580;28;19922;-68
2021/06/06 15:37:05;;;;;;;;;;;19.20;99.90;;;;;;4970739;28;19926;-68
2021/06/06 15:39:32;;;;;;;;;;;19.30;99.90;;;;;;4970644;28;20352;-68
2021/06/06 15:41:58;;;;;;;;;;;19.20;99.90;;;;;;4970868;28;19984;-68
2021/06/06 15:44:25;;;;;;;;;;;19.10;99.90;;;;;;4970892;28;20424;-68
2021/06/06 15:46:51;;;;;;;;;;;19.10;99.90;;;;;;4970814;28;19922;-69
2021/06/06 15:49:18;;;;;;;;;;;19.10;99.90;;;;;;4970591;28;19926;-68
2021/06/06 15:51:48;;;;;;;;;;;19.10;99.90;;;;;;4970937;28;20421;-68
2021/06/06 15:54:16;;;;;;;;;;;19.10;99.90;;;;;;4970561;28;19928;-68
2021/06/06 15:56:42;;;;;;;;;;;19.00;99.90;;;;;;4970381;28;19968;-68
2021/06/06 15:59:08;;;;;;;;;;;19.00;99.90;;;;;;4970667;28;20050;-68
2021/06/06 16:01:36;;;;;;;;;;;19.00;99.90;;;;;;4970530;28;19959;-68
2021/06/06 16:04:02;;;;;;;;;;;18.90;99.90;;;;;;4970297;28;19975;-68
2021/06/06 16:06:29;;;;;;;;;;;18.90;99.90;;;;;;4970017;28;19929;-68
2021/06/06 16:08:57;;;;;;;;;;;18.90;99.90;;;;;;4970537;28;20384;-68
2021/06/06 16:11:24;;;;;;;;;;;19.00;99.90;;;;;;4969959;28;19922;-68
2021/06/06 16:13:51;;;;;;;;;;;19.00;99.90;;;;;;4973070;28;19929;-68
2021/06/06 16:16:18;;;;;;;;;;;19.00;99.90;;;;;;4974042;28;20025;-68
2021/06/06 16:18:44;;;;;;;;;;;19.00;99.90;;;;;;4974071;28;20253;-68
2021/06/06 16:21:13;;;;;;;;;;;18.90;99.90;;;;;;4973961;28;19929;-68
2021/06/06 16:23:40;;;;;;;;;;;18.90;99.90;;;;;;4974130;28;20004;-67
2021/06/06 16:26:09;;;;;;;;;;;18.90;99.90;;;;;;4973784;28;19969;-68
2021/06/06 16:28:36;;;;;;;;;;;18.80;99.90;;;;;;4973917;28;19926;-67
2021/06/06 16:31:02;;;;;;;;;;;18.90;99.90;;;;;;4973723;28;20390;-67
2021/06/06 16:33:28;;;;;;;;;;;18.80;99.90;;;;;;4973957;28;20016;-67
2021/06/06 16:35:55;;;;;;;;;;;18.80;99.90;;;;;;4974094;28;19926;-67
2021/06/06 16:38:21;;;;;;;;;;;18.80;99.90;;;;;;4973886;28;20389;-68
2021/06/06 16:40:48;;;;;;;;;;;18.80;99.90;;;;;;4973855;28;19930;-67
2021/06/06 16:43:15;;;;;;;;;;;18.80;99.90;;;;;;4973514;28;20301;-68
2021/06/06 16:45:43;;;;;;;;;;;18.80;99.90;;;;;;4973253;28;19922;-68
2021/06/06 16:48:11;;;;;;;;;;;18.80;99.90;;;;;;4973509;28;19922;-68
2021/06/06 16:50:38;;;;;;;;;;;18.80;99.90;;;;;;4973644;28;20400;-68
2021/06/06 16:53:06;;;;;;;;;;;18.80;99.90;;;;;;4973296;28;20497;-68
2021/06/06 16:55:34;;;;;;;;;;;18.70;99.90;;;;;;4973042;28;19922;-68
2021/06/06 16:58:00;;;;;;;;;;;18.70;99.90;;;;;;4973251;28;19936;-67
2021/06/06 17:00:44;;;;;;;;;;;18.70;99.90;;;;;;4930378;28;19922;-68
2021/06/06 17:03:11;;;;;;;;;;;18.70;99.90;;;;;;4973300;28;20032;-67
2021/06/06 17:05:38;;;;;;;;;;;18.70;99.90;;;;;;4971768;28;19926;-68
2021/06/06 17:08:04;;;;;;;;;;;18.60;99.90;;;;;;4973534;28;19953;-67
2021/06/06 17:10:31;;;;;;;;;;;18.50;99.90;;;;;;4973325;28;19930;-68
2021/06/06 17:12:58;;;;;;;;;;;18.50;99.90;;;;;;4973634;28;20309;-68
2021/06/06 17:15:26;;;;;;;;;;;18.50;99.90;;;;;;4973127;28;20333;-68
2021/06/06 17:17:53;;;;;;;;;;;18.50;99.90;;;;;;4973208;28;20029;-68
2021/06/06 17:20:23;;;;;;;;;;;18.50;99.90;;;;;;4973027;28;19930;-68
2021/06/06 17:22:49;;;;;;;;;;;18.60;99.90;;;;;;4973061;28;20181;-67
2021/06/06 17:25:17;;;;;;;;;;;18.60;99.90;;;;;;4972686;28;19926;-68
2021/06/06 17:27:44;;;;;;;;;;;18.60;99.90;;;;;;4972981;28;20317;-68
2021/06/06 17:30:11;;;;;;;;;;;18.60;99.90;;;;;;4972964;28;19984;-68
2021/06/06 17:32:38;;;;;;;;;;;18.50;99.90;;;;;;4972900;28;20027;-68
2021/06/06 17:35:06;;;;;;;;;;;18.60;99.90;;;;;;4973322;28;20349;-68
2021/06/06 17:37:32;;;;;;;;;;;18.60;99.90;;;;;;4972864;28;19922;-68
2021/06/06 17:39:59;;;;;;;;;;;18.60;99.90;;;;;;4972945;28;19922;-68
2021/06/06 17:42:25;;;;;;;;;;;18.60;99.90;;;;;;4972935;28;19926;-68
2021/06/06 17:44:51;;;;;;;;;;;18.60;99.90;;;;;;4972647;28;20303;-68
2021/06/06 17:47:20;;;;;;;;;;;18.60;99.90;;;;;;4972359;28;20362;-68
2021/06/06 17:49:47;;;;;;;;;;;18.60;99.90;;;;;;4972605;28;20081;-68
2021/06/06 17:52:14;;;;;;;;;;;18.60;99.90;;;;;;4972060;28;20024;-68
2021/06/06 17:54:41;;;;;;;;;;;18.50;99.90;;;;;;4972311;28;20017;-68
2021/06/06 17:57:07;;;;;;;;;;;18.50;99.90;;;;;;4972314;28;19926;-67
2021/06/06 17:59:34;;;;;;;;;;;18.60;99.90;;;;;;4972129;28;19976;-68
2021/06/06 18:02:00;;;;;;;;;;;18.50;99.90;;;;;;4971981;28;20037;-67
2021/06/06 18:04:26;;;;;;;;;;;18.60;99.90;;;;;;4972556;28;20347;-68
2021/06/06 18:06:53;;;;;;;;;;;18.60;99.90;;;;;;4972507;28;19926;-68
2021/06/06 18:09:21;;;;;;;;;;;18.60;99.90;;;;;;4972312;28;19953;-68
2021/06/06 18:11:49;;;;;;;;;;;18.60;99.90;;;;;;4971869;28;20341;-68
2021/06/06 18:14:15;;;;;;;;;;;18.60;99.90;;;;;;4971765;28;19933;-68
2021/06/06 18:16:42;;;;;;;;;;;18.50;99.90;;;;;;4971915;28;20012;-68
2021/06/06 18:19:08;;;;;;;;;;;18.50;99.90;;;;;;4971877;28;19922;-67
2021/06/06 18:21:36;;;;;;;;;;;18.60;99.90;;;;;;4971771;28;20013;-68
2021/06/06 18:24:03;;;;;;;;;;;18.60;99.90;;;;;;4971897;28;19929;-67
2021/06/06 18:26:31;;;;;;;;;;;18.50;99.90;;;;;;4971868;28;19922;-68
2021/06/06 18:28:57;;;;;;;;;;;18.40;99.90;;;;;;4971783;28;19922;-67
2021/06/06 18:31:23;;;;;;;;;;;18.50;99.90;;;;;;4971663;28;20035;-66
2021/06/06 18:33:52;;;;;;;;;;;18.50;99.90;;;;;;4970318;28;19933;-69
2021/06/06 18:36:18;;;;;;;;;;;18.40;99.90;;;;;;4969521;28;19977;-69
2021/06/06 18:38:44;;;;;;;;;;;18.40;99.90;;;;;;4970677;28;19929;-69
2021/06/06 18:41:11;;;;;;;;;;;18.40;99.90;;;;;;4968087;28;20435;-73
2021/06/06 18:43:40;;;;;;;;;;;18.30;99.90;;;;;;4968579;28;20402;-73
2021/06/06 18:46:06;;;;;;;;;;;18.40;99.90;;;;;;4965473;28;19922;-72
2021/06/06 18:48:32;;;;;;;;;;;18.40;99.90;;;;;;4957289;28;20013;-71
2021/06/06 18:50:59;;;;;;;;;;;18.40;99.90;;;;;;4956430;28;19922;-71
2021/06/06 18:53:27;;;;;;;;;;;18.30;99.90;;;;;;4953411;28;20403;-70
2021/06/06 18:55:55;;;;;;;;;;;18.30;99.90;;;;;;4958564;28;20312;-68
2021/06/06 18:58:21;;;;;;;;;;;18.30;99.90;;;;;;4965896;28;20036;-71
2021/06/06 19:00:50;;;;;;;;;;;18.30;99.90;;;;;;4964288;28;20477;-71
2021/06/06 19:03:17;;;;;;;;;;;18.30;99.90;;;;;;4968849;28;19922;-71
2021/06/06 19:05:44;;;;;;;;;;;18.30;99.90;;;;;;4966437;28;20421;-70
2021/06/06 19:08:11;;;;;;;;;;;18.30;99.90;;;;;;4962650;28;20378;-70
2021/06/06 19:10:39;;;;;;;;;;;18.30;99.90;;;;;;4967162;28;19949;-71
2021/06/06 19:13:09;;;;;;;;;;;18.30;99.90;;;;;;4967008;28;20302;-70